Decoded Metar for KRPD (RICE LAKE in WI, USA) (IATA:RPD) | Meteo·Mobile Aviation Weather
aviador You're here:

KRPD Decoded Metar

RICE LAKE in WI, USA
Report Time2019-01-23 07:35:00
UTC Time2019-01-23 07:32:29
Flight Rules vfr VFR
WindCalm
Visibility9999 m
Phenomena:N/A
Clouds:N/A
Expected CloudBase > 400 ft AGL from Temp-Dew spread
CeilingNone
Temp-14°C (ISA -27)
Dew Point-15°C (92% RH)
AAT-17.4°C
QNH1014 hPa
Density Alt-2,267 ft
Elevation1,109 ft
Report Wrong Elevation
Raw Report
KRPD 230735Z AUTO 00000KT 10SM CLR M14/M15 A2995 RMK AO2
T11411150=

Extra information for KRPD:More info

Metar Taf Metar & Taf Last 4 Metars F.Rules Stats Wind Profile Meteogram Temp Stats Airport Information Weather charts Add Link Nearby VenuesMetar ALERT Operation Metar Decoded Social comments

AIRNAV info for KRPD